createdAt,value
2023-05-25T00:01:10.459Z,5.60
2023-05-25T00:03:42.061Z,5.30
2023-05-25T00:06:12.185Z,5.50
2023-05-25T00:08:43.656Z,5.57
2023-05-25T00:11:13.223Z,5.70
2023-05-25T00:13:44.638Z,5.50
2023-05-25T00:16:13.840Z,5.13
2023-05-25T00:18:44.295Z,5.20
2023-05-25T00:21:14.286Z,5.60
2023-05-25T00:23:47.033Z,4.77
2023-05-25T00:26:18.441Z,4.83
2023-05-25T00:28:47.667Z,5.10
2023-05-25T00:31:17.245Z,5.40
2023-05-25T00:33:47.580Z,5.13
2023-05-25T00:36:16.591Z,6.17
2023-05-25T00:38:45.576Z,5.37
2023-05-25T00:41:16.354Z,5.30
2023-05-25T00:43:48.111Z,5.10
2023-05-25T00:46:18.411Z,5.10
2023-05-25T00:48:48.359Z,6.07
2023-05-25T00:51:17.553Z,4.67
2023-05-25T00:53:48.698Z,5.00
2023-05-25T00:56:24.670Z,4.30
2023-05-25T00:58:57.546Z,5.87
2023-05-25T01:01:29.190Z,5.10
2023-05-25T01:04:00.636Z,5.90
2023-05-25T01:06:35.816Z,5.50
2023-05-25T01:09:10.757Z,3.93
2023-05-25T01:11:44.625Z,4.43
2023-05-25T01:14:16.579Z,4.80
2023-05-25T01:16:47.891Z,5.33
2023-05-25T01:19:17.048Z,4.93
2023-05-25T01:22:02.414Z,5.17
2023-05-25T01:24:55.247Z,5.57
2023-05-25T01:27:36.632Z,3.97
2023-05-25T01:30:11.622Z,4.90
2023-05-25T01:32:42.363Z,5.47
2023-05-25T01:35:17.746Z,4.87
2023-05-25T01:37:50.784Z,4.10
2023-05-25T01:40:20.526Z,4.97
2023-05-25T01:42:50.683Z,5.40
2023-05-25T01:45:20.687Z,5.40
2023-05-25T01:48:14.258Z,5.10
2023-05-25T01:51:06.306Z,5.40
2023-05-25T01:53:47.767Z,4.63
2023-05-25T01:56:18.942Z,5.07
2023-05-25T01:58:51.967Z,4.53
2023-05-25T02:01:24.321Z,4.33
2023-05-25T02:03:53.616Z,5.53
2023-05-25T02:06:24.366Z,6.00
2023-05-25T02:08:54.334Z,4.20
2023-05-25T02:11:23.260Z,5.40
2023-05-25T02:13:53.176Z,5.40
2023-05-25T02:16:23.106Z,4.90
2023-05-25T02:18:52.011Z,4.07
2023-05-25T02:21:21.890Z,4.37
2023-05-25T02:23:51.004Z,5.07
2023-05-25T02:26:21.416Z,4.60
2023-05-25T02:28:52.264Z,4.63
2023-05-25T02:31:22.128Z,4.70
2023-05-25T02:33:51.602Z,5.80
2023-05-25T02:36:23.164Z,4.40
2023-05-25T02:38:52.844Z,5.17
2023-05-25T02:41:26.009Z,5.73
2023-05-25T02:44:00.999Z,5.00
2023-05-25T02:46:30.720Z,4.00
2023-05-25T02:49:00.453Z,4.40
2023-05-25T02:51:29.345Z,3.67
2023-05-25T02:53:59.643Z,5.47
2023-05-25T02:56:30.819Z,4.20
2023-05-25T02:59:01.122Z,4.20
2023-05-25T03:01:31.245Z,5.00
2023-05-25T03:04:04.006Z,4.20
2023-05-25T03:06:35.401Z,4.60
2023-05-25T03:09:06.418Z,5.30
2023-05-25T03:11:34.540Z,4.63
2023-05-25T03:14:04.078Z,4.47
2023-05-25T03:16:37.506Z,3.93
2023-05-25T03:19:08.049Z,4.70
2023-05-25T03:21:38.566Z,4.40
2023-05-25T03:24:08.719Z,4.80
2023-05-25T03:26:37.798Z,4.67
2023-05-25T03:29:09.682Z,4.17
2023-05-25T03:31:38.929Z,4.47
2023-05-25T03:34:13.394Z,5.20
2023-05-25T03:36:46.469Z,4.47
2023-05-25T03:39:14.762Z,4.23
2023-05-25T03:41:47.184Z,4.27
2023-05-25T03:44:15.241Z,4.23
2023-05-25T03:46:44.613Z,6.93
2023-05-25T03:49:14.925Z,4.17
2023-05-25T03:51:44.407Z,4.63
2023-05-25T03:54:15.608Z,4.03
2023-05-25T03:56:46.467Z,4.13
2023-05-25T03:59:15.484Z,4.07
2023-05-25T04:01:45.229Z,9.17
2023-05-25T04:04:15.130Z,5.03
2023-05-25T04:06:47.257Z,3.53
2023-05-25T04:09:16.057Z,3.47
2023-05-25T04:11:47.248Z,3.83
2023-05-25T04:14:16.409Z,3.33
2023-05-25T04:16:49.692Z,3.47
2023-05-25T04:19:19.769Z,4.20
2023-05-25T04:21:51.804Z,4.33
2023-05-25T04:24:24.152Z,3.87
2023-05-25T04:26:58.430Z,3.07
2023-05-25T04:29:29.658Z,3.60
2023-05-25T04:32:01.969Z,4.43
2023-05-25T04:34:36.049Z,3.90
2023-05-25T04:37:07.386Z,4.23
2023-05-25T04:39:38.082Z,3.50
2023-05-25T04:42:08.140Z,3.77
2023-05-25T04:44:41.047Z,2.80
2023-05-25T04:47:17.650Z,3.20
2023-05-25T04:50:00.270Z,3.17
2023-05-25T04:52:32.315Z,3.07
2023-05-25T04:55:03.832Z,3.60
2023-05-25T04:57:32.725Z,3.50
2023-05-25T05:00:02.282Z,3.00
2023-05-25T05:02:38.169Z,2.70
2023-05-25T05:05:09.960Z,2.80
2023-05-25T05:07:43.438Z,2.53
2023-05-25T05:10:13.884Z,2.50
2023-05-25T05:12:43.716Z,2.97
2023-05-25T05:15:13.474Z,3.37
2023-05-25T05:17:42.050Z,2.90
2023-05-25T05:20:14.554Z,2.40
2023-05-25T05:22:46.837Z,2.33
2023-05-25T05:25:15.445Z,2.40
2023-05-25T05:27:44.451Z,2.70
2023-05-25T05:30:13.281Z,2.33
2023-05-25T05:32:44.040Z,2.17
2023-05-25T05:35:14.819Z,2.33
2023-05-25T05:37:45.144Z,2.40
2023-05-25T05:40:13.537Z,2.13
2023-05-25T05:42:43.447Z,2.40
2023-05-25T05:45:12.433Z,2.43
2023-05-25T05:47:44.015Z,2.90
2023-05-25T05:50:13.110Z,2.60
2023-05-25T05:52:43.014Z,2.07
2023-05-25T05:55:11.535Z,2.73
2023-05-25T05:57:40.928Z,2.53
2023-05-25T06:00:14.616Z,2.87
2023-05-25T06:02:44.406Z,2.37
2023-05-25T06:05:14.689Z,2.47
2023-05-25T06:07:43.766Z,2.80
2023-05-25T06:10:14.013Z,2.63
2023-05-25T06:12:44.450Z,2.23
2023-05-25T06:15:14.789Z,2.30
2023-05-25T06:17:45.824Z,2.63
2023-05-25T06:20:15.386Z,2.23
2023-05-25T06:22:45.074Z,2.50
2023-05-25T06:25:15.099Z,2.33
2023-05-25T06:27:43.529Z,1.83
2023-05-25T06:30:13.451Z,2.77
2023-05-25T06:32:44.772Z,2.43
2023-05-25T06:35:21.244Z,2.27
2023-05-25T06:37:52.410Z,2.47
2023-05-25T06:40:22.215Z,2.57
2023-05-25T06:42:51.891Z,2.30
2023-05-25T06:45:20.004Z,2.30
2023-05-25T06:47:49.521Z,2.67
2023-05-25T06:50:20.253Z,2.80
2023-05-25T06:52:49.567Z,2.40
2023-05-25T06:55:28.324Z,2.67
2023-05-25T06:58:03.280Z,2.93
2023-05-25T07:00:34.781Z,2.57
2023-05-25T07:03:09.256Z,2.73
2023-05-25T07:05:39.181Z,2.60
2023-05-25T07:08:11.735Z,2.57
2023-05-25T07:10:40.390Z,3.07
2023-05-25T07:13:18.148Z,2.20
2023-05-25T07:15:47.267Z,3.10
2023-05-25T07:18:18.589Z,2.40
2023-05-25T07:20:50.856Z,2.37
2023-05-25T07:23:21.191Z,2.77
2023-05-25T07:25:55.403Z,2.80
2023-05-25T07:28:28.447Z,2.90
2023-05-25T07:31:08.434Z,2.50
2023-05-25T07:33:41.181Z,2.20
2023-05-25T07:36:16.362Z,2.53
2023-05-25T07:38:49.434Z,2.53
2023-05-25T07:41:28.239Z,2.60
2023-05-25T07:44:03.822Z,2.53
2023-05-25T07:46:35.866Z,2.47
2023-05-25T07:49:30.738Z,2.93
2023-05-25T07:52:03.284Z,2.00
2023-05-25T07:54:33.813Z,2.03
2023-05-25T07:57:13.912Z,2.20
2023-05-25T07:59:46.997Z,2.47
2023-05-25T08:02:17.880Z,2.43
2023-05-25T08:04:48.848Z,2.30
2023-05-25T08:07:23.104Z,2.67
2023-05-25T08:09:59.003Z,2.80
2023-05-25T08:12:48.943Z,2.40
2023-05-25T08:15:20.391Z,2.30
2023-05-25T08:17:57.749Z,2.43
2023-05-25T08:20:28.509Z,2.87
2023-05-25T08:22:58.764Z,2.60
2023-05-25T08:25:29.987Z,2.53
2023-05-25T08:28:01.444Z,2.60
2023-05-25T08:30:48.733Z,2.10
2023-05-25T08:33:20.485Z,2.30
2023-05-25T08:35:53.125Z,2.30
2023-05-25T08:38:27.902Z,2.40
2023-05-25T08:41:13.650Z,2.33
2023-05-25T08:43:45.122Z,2.20
2023-05-25T08:46:14.288Z,2.13
2023-05-25T08:48:51.451Z,2.20
2023-05-25T08:51:22.090Z,2.43
2023-05-25T08:54:07.923Z,2.50
2023-05-25T08:57:03.101Z,2.57
2023-05-25T08:59:50.271Z,2.20
2023-05-25T09:03:01.166Z,2.23
2023-05-25T09:05:48.445Z,2.47
2023-05-25T09:08:41.911Z,2.00
2023-05-25T09:11:36.150Z,2.57
2023-05-25T09:14:09.386Z,2.47
2023-05-25T09:16:42.305Z,2.57
2023-05-25T09:19:11.433Z,2.23
2023-05-25T09:21:40.992Z,2.17
2023-05-25T09:24:11.396Z,2.20
2023-05-25T09:26:39.533Z,3.43
2023-05-25T09:29:08.069Z,2.50
2023-05-25T09:31:41.317Z,2.53
2023-05-25T09:34:16.576Z,2.20
2023-05-25T09:36:45.585Z,2.47
2023-05-25T09:39:17.356Z,2.13
2023-05-25T09:41:46.771Z,2.23
2023-05-25T09:44:15.189Z,1.90
2023-05-25T09:46:46.106Z,2.30
2023-05-25T09:49:18.317Z,2.60
2023-05-25T09:51:47.390Z,2.23
2023-05-25T09:54:16.241Z,1.90
2023-05-25T09:56:45.086Z,2.50
2023-05-25T09:59:16.194Z,2.63
2023-05-25T10:01:51.635Z,2.73
2023-05-25T10:04:19.817Z,2.80
2023-05-25T10:06:52.092Z,2.70
2023-05-25T10:09:23.554Z,2.40
2023-05-25T10:11:55.696Z,2.03
2023-05-25T10:14:31.212Z,2.50
2023-05-25T10:17:03.373Z,2.57
2023-05-25T10:19:58.216Z,2.60
2023-05-25T10:23:02.154Z,2.67
2023-05-25T10:25:34.968Z,2.43
2023-05-25T10:28:18.817Z,2.70
2023-05-25T10:30:50.720Z,2.37
2023-05-25T10:33:25.249Z,2.20
2023-05-25T10:36:09.261Z,2.33
2023-05-25T10:38:41.485Z,2.77
2023-05-25T10:41:13.224Z,2.73
2023-05-25T10:43:43.997Z,2.43
2023-05-25T10:46:15.564Z,2.33
2023-05-25T10:49:00.851Z,2.67
2023-05-25T10:52:02.793Z,2.67
2023-05-25T10:54:40.229Z,2.57
2023-05-25T10:57:22.622Z,2.43
2023-05-25T11:00:02.529Z,2.70
2023-05-25T11:02:33.085Z,2.83
2023-05-25T11:05:30.656Z,2.60
2023-05-25T11:08:03.638Z,2.63
2023-05-25T11:10:57.877Z,2.80
2023-05-25T11:13:36.508Z,2.20
2023-05-25T11:16:31.295Z,2.53
2023-05-25T11:19:02.470Z,2.50
2023-05-25T11:21:34.001Z,2.40
2023-05-25T11:24:13.782Z,2.57
2023-05-25T11:27:02.755Z,2.63
2023-05-25T11:29:34.003Z,2.83
2023-05-25T11:32:04.208Z,2.87
2023-05-25T11:34:33.515Z,2.30
2023-05-25T11:37:05.157Z,2.73
2023-05-25T11:39:34.440Z,2.43
2023-05-25T11:42:08.394Z,2.53
2023-05-25T11:44:38.415Z,2.60
2023-05-25T11:47:15.330Z,2.40
2023-05-25T11:49:50.032Z,2.63
2023-05-25T11:52:26.169Z,2.73
2023-05-25T11:54:55.001Z,2.17
2023-05-25T11:57:25.593Z,2.80
2023-05-25T11:59:59.596Z,2.83
2023-05-25T12:02:28.663Z,2.70
2023-05-25T12:05:04.523Z,2.70
2023-05-25T12:07:32.889Z,2.73
2023-05-25T12:10:13.143Z,2.60
2023-05-25T12:12:48.147Z,2.47
2023-05-25T12:15:27.521Z,2.73
2023-05-25T12:18:00.226Z,2.37
2023-05-25T12:20:29.036Z,2.43
2023-05-25T12:22:59.404Z,2.73
2023-05-25T12:25:38.805Z,2.20
2023-05-25T12:28:17.075Z,2.10
2023-05-25T12:30:46.018Z,2.57
2023-05-25T12:33:18.072Z,2.87
2023-05-25T12:35:51.305Z,2.70
2023-05-25T12:38:22.095Z,2.60
2023-05-25T12:41:07.975Z,2.53
2023-05-25T12:43:55.162Z,2.67
2023-05-25T12:46:27.434Z,2.87
2023-05-25T12:48:55.333Z,2.70
2023-05-25T12:51:26.658Z,1.97
2023-05-25T12:53:59.937Z,2.73
2023-05-25T12:56:31.888Z,2.70
2023-05-25T12:59:15.944Z,2.67
2023-05-25T13:01:47.681Z,2.60
2023-05-25T13:04:17.521Z,2.90
2023-05-25T13:06:47.474Z,2.47
2023-05-25T13:09:17.998Z,3.00
2023-05-25T13:11:46.653Z,2.50
2023-05-25T13:14:17.111Z,2.17
2023-05-25T13:16:47.872Z,2.50
2023-05-25T13:19:16.787Z,2.47
2023-05-25T13:21:47.263Z,2.57
2023-05-25T13:24:17.399Z,2.47
2023-05-25T13:26:48.109Z,2.50
2023-05-25T13:29:17.840Z,3.00
2023-05-25T13:31:47.080Z,2.20
2023-05-25T13:34:16.432Z,2.57
2023-05-25T13:36:47.790Z,2.30
2023-05-25T13:39:22.218Z,2.40
2023-05-25T13:41:52.194Z,1.87
2023-05-25T13:44:21.776Z,2.93
2023-05-25T13:46:59.139Z,2.60
2023-05-25T13:49:27.490Z,2.00
2023-05-25T13:51:57.645Z,2.23
2023-05-25T13:54:29.926Z,2.20
2023-05-25T13:57:01.822Z,2.50
2023-05-25T13:59:30.800Z,2.10
2023-05-25T14:02:00.945Z,2.10
2023-05-25T14:04:37.544Z,2.30
2023-05-25T14:07:05.573Z,2.17
2023-05-25T14:09:34.346Z,2.47
2023-05-25T14:12:08.978Z,2.60
2023-05-25T14:14:39.406Z,2.40
2023-05-25T14:17:08.603Z,2.50
2023-05-25T14:19:39.329Z,2.20
2023-05-25T14:22:13.846Z,2.83
2023-05-25T14:24:58.196Z,2.23
2023-05-25T14:27:30.832Z,2.40
2023-05-25T14:29:58.942Z,2.17
2023-05-25T14:32:32.673Z,2.37
2023-05-25T14:35:01.759Z,2.40
2023-05-25T14:37:32.522Z,2.47
2023-05-25T14:40:02.120Z,2.30
2023-05-25T14:42:30.986Z,2.00
2023-05-25T14:45:08.649Z,2.30
2023-05-25T14:47:38.239Z,2.17
2023-05-25T14:50:08.218Z,2.10
2023-05-25T14:52:39.214Z,2.77
2023-05-25T14:55:09.345Z,2.10
2023-05-25T14:57:37.587Z,2.93
2023-05-25T15:00:09.637Z,2.47
2023-05-25T15:02:38.259Z,2.73
2023-05-25T15:05:10.251Z,2.90
2023-05-25T15:07:38.815Z,4.27
2023-05-25T15:10:10.838Z,2.77
2023-05-25T15:12:39.500Z,2.77
2023-05-25T15:15:10.043Z,2.93
2023-05-25T15:17:39.468Z,3.07
2023-05-25T15:20:11.685Z,3.00
2023-05-25T15:22:42.786Z,2.53
2023-05-25T15:25:13.642Z,3.13
2023-05-25T15:27:46.036Z,2.50
2023-05-25T15:30:15.198Z,2.73
2023-05-25T15:32:43.389Z,2.63
2023-05-25T15:35:12.870Z,2.53
2023-05-25T15:37:43.143Z,3.00
2023-05-25T15:40:12.921Z,2.03
2023-05-25T15:42:42.978Z,2.47
2023-05-25T15:45:11.791Z,2.13
2023-05-25T15:47:40.433Z,2.33
2023-05-25T15:50:11.623Z,2.23
2023-05-25T15:52:42.434Z,2.87
2023-05-25T15:55:10.832Z,2.43
2023-05-25T15:57:39.090Z,3.10
2023-05-25T16:00:08.821Z,3.03
2023-05-25T16:02:40.406Z,3.13
2023-05-25T16:05:10.457Z,3.00
2023-05-25T16:07:39.472Z,2.23
2023-05-25T16:10:08.541Z,3.17
2023-05-25T16:12:37.484Z,2.30
2023-05-25T16:15:19.375Z,2.83
2023-05-25T16:17:48.104Z,3.50
2023-05-25T16:20:16.907Z,3.30
2023-05-25T16:22:45.690Z,2.60
2023-05-25T16:25:14.035Z,2.57
2023-05-25T16:27:41.692Z,2.80
2023-05-25T16:30:12.445Z,3.30
2023-05-25T16:32:41.293Z,2.60
2023-05-25T16:35:09.388Z,2.53
2023-05-25T16:37:37.270Z,2.77
2023-05-25T16:40:05.625Z,2.30
2023-05-25T16:42:33.157Z,2.20
2023-05-25T16:45:01.116Z,2.17
2023-05-25T16:47:30.877Z,3.10
2023-05-25T16:49:59.403Z,2.53
2023-05-25T16:52:27.213Z,2.27
2023-05-25T16:54:57.118Z,2.77
2023-05-25T16:57:27.744Z,2.63
2023-05-25T17:00:07.765Z,2.63
2023-05-25T17:03:05.857Z,2.37
2023-05-25T17:05:41.278Z,2.73
2023-05-25T17:08:14.137Z,2.93
2023-05-25T17:10:58.299Z,2.50
2023-05-25T17:13:39.716Z,2.97
2023-05-25T17:16:07.970Z,2.60
2023-05-25T17:18:50.632Z,2.93
2023-05-25T17:21:18.600Z,3.17
2023-05-25T17:23:47.867Z,2.33
2023-05-25T17:26:22.643Z,3.43
2023-05-25T17:28:50.499Z,3.47
2023-05-25T17:31:18.296Z,3.23
2023-05-25T17:33:46.483Z,3.17
2023-05-25T17:36:15.103Z,3.63
2023-05-25T17:38:44.177Z,4.77
2023-05-25T17:41:13.170Z,6.13
2023-05-25T17:43:43.865Z,4.07
2023-05-25T17:46:15.193Z,5.00
2023-05-25T17:48:43.451Z,4.77
2023-05-25T17:51:11.466Z,4.87
2023-05-25T17:53:39.821Z,4.37
2023-05-25T17:56:08.930Z,3.77
2023-05-25T17:58:37.820Z,3.90
2023-05-25T18:01:06.992Z,4.17
2023-05-25T18:03:38.138Z,4.97
2023-05-25T18:06:08.809Z,4.53
2023-05-25T18:08:40.713Z,4.40
2023-05-25T18:11:08.956Z,4.33
2023-05-25T18:13:37.225Z,5.40
2023-05-25T18:16:16.993Z,5.03
2023-05-25T18:18:54.285Z,4.80
2023-05-25T18:21:21.879Z,5.57
2023-05-25T18:23:50.095Z,5.30
2023-05-25T18:26:18.404Z,4.80
2023-05-25T18:28:51.819Z,4.67
2023-05-25T18:31:19.962Z,4.90
2023-05-25T18:33:48.941Z,4.33
2023-05-25T18:36:17.599Z,4.40
2023-05-25T18:38:45.617Z,5.87
2023-05-25T18:41:13.976Z,5.07
2023-05-25T18:43:42.866Z,5.97
2023-05-25T18:46:11.405Z,6.03
2023-05-25T18:48:43.602Z,5.97
2023-05-25T18:51:12.196Z,5.17
2023-05-25T18:53:46.668Z,4.97
2023-05-25T18:56:15.737Z,5.37
2023-05-25T18:58:43.997Z,5.57
2023-05-25T19:01:17.815Z,5.87
2023-05-25T19:03:46.687Z,6.13
2023-05-25T19:06:18.587Z,5.33
2023-05-25T19:08:49.629Z,5.63
2023-05-25T19:11:21.090Z,5.30
2023-05-25T19:13:52.608Z,6.30
2023-05-25T19:16:21.149Z,6.00
2023-05-25T19:18:50.194Z,5.13
2023-05-25T19:21:21.306Z,5.60
2023-05-25T19:23:50.373Z,6.00
2023-05-25T19:26:26.329Z,6.90
2023-05-25T19:28:56.364Z,5.70
2023-05-25T19:31:24.471Z,6.33
2023-05-25T19:33:58.928Z,6.27
2023-05-25T19:36:27.730Z,6.30
2023-05-25T19:38:58.771Z,5.80
2023-05-25T19:41:29.746Z,7.23
2023-05-25T19:44:00.573Z,5.67
2023-05-25T19:46:29.312Z,6.40
2023-05-25T19:49:00.097Z,6.60
2023-05-25T19:51:28.579Z,5.47
2023-05-25T19:53:57.420Z,5.70
2023-05-25T19:56:26.229Z,5.60
2023-05-25T19:58:55.835Z,6.20
2023-05-25T20:01:23.817Z,6.80
2023-05-25T20:04:08.379Z,6.43
2023-05-25T20:06:39.140Z,6.40
2023-05-25T20:09:07.292Z,6.40
2023-05-25T20:11:35.325Z,5.80
2023-05-25T20:14:03.937Z,5.90
2023-05-25T20:16:35.411Z,7.27
2023-05-25T20:19:09.005Z,6.40
2023-05-25T20:21:40.050Z,5.83
2023-05-25T20:24:09.491Z,7.13
2023-05-25T20:27:02.214Z,6.80
2023-05-25T20:29:31.218Z,5.63
2023-05-25T20:32:00.353Z,6.30
2023-05-25T20:34:35.789Z,6.33
2023-05-25T20:37:04.386Z,6.00
2023-05-25T20:39:34.122Z,7.17
2023-05-25T20:42:02.740Z,6.33
2023-05-25T20:44:32.724Z,7.37
2023-05-25T20:47:02.021Z,5.37
2023-05-25T20:49:30.413Z,5.70
2023-05-25T20:51:59.195Z,6.33
2023-05-25T20:54:28.529Z,7.43
2023-05-25T20:57:04.116Z,5.97
2023-05-25T20:59:33.632Z,6.47
2023-05-25T21:02:02.281Z,6.60
2023-05-25T21:04:32.175Z,6.33
2023-05-25T21:07:00.458Z,5.63
2023-05-25T21:09:29.316Z,6.07
2023-05-25T21:11:59.352Z,5.80
2023-05-25T21:14:27.828Z,5.27
2023-05-25T21:16:57.232Z,5.97
2023-05-25T21:19:29.332Z,8.30
2023-05-25T21:21:58.049Z,5.80
2023-05-25T21:24:26.819Z,6.23
2023-05-25T21:26:55.025Z,5.90
2023-05-25T21:29:26.929Z,6.13
2023-05-25T21:31:56.991Z,6.47
2023-05-25T21:34:25.175Z,6.57
2023-05-25T21:36:54.679Z,5.70
2023-05-25T21:39:24.608Z,5.30
2023-05-25T21:41:56.858Z,5.67
2023-05-25T21:44:26.021Z,4.83
2023-05-25T21:46:55.518Z,6.13
2023-05-25T21:49:24.905Z,5.57
2023-05-25T21:51:53.340Z,5.77
2023-05-25T21:54:22.103Z,6.23
2023-05-25T21:56:51.903Z,6.00
2023-05-25T21:59:21.460Z,5.03
2023-05-25T22:01:50.627Z,6.37
2023-05-25T22:04:20.222Z,5.47
2023-05-25T22:06:50.834Z,5.27
2023-05-25T22:09:19.113Z,5.03
2023-05-25T22:11:49.612Z,5.17
2023-05-25T22:14:18.493Z,5.57
2023-05-25T22:16:47.688Z,6.43
2023-05-25T22:19:17.637Z,5.57
2023-05-25T22:21:46.940Z,5.37
2023-05-25T22:24:16.525Z,5.43
2023-05-25T22:26:46.900Z,5.60
2023-05-25T22:29:15.539Z,5.67
2023-05-25T22:31:45.201Z,5.53
2023-05-25T22:34:14.594Z,6.00
2023-05-25T22:36:45.757Z,5.53
2023-05-25T22:39:16.141Z,5.20
2023-05-25T22:41:46.299Z,5.10
2023-05-25T22:44:16.060Z,4.73
2023-05-25T22:46:46.517Z,5.53
2023-05-25T22:49:16.346Z,4.90
2023-05-25T22:51:44.882Z,5.33
2023-05-25T22:54:13.761Z,4.83
2023-05-25T22:56:44.034Z,5.23
2023-05-25T22:59:16.451Z,4.43
2023-05-25T23:01:46.649Z,5.90
2023-05-25T23:04:17.614Z,5.37
2023-05-25T23:06:46.855Z,4.87
2023-05-25T23:09:16.032Z,5.27
2023-05-25T23:11:45.081Z,4.80
2023-05-25T23:14:14.740Z,4.60
2023-05-25T23:16:43.507Z,5.07
2023-05-25T23:19:13.884Z,5.60
2023-05-25T23:21:44.293Z,5.10
2023-05-25T23:24:14.207Z,5.37
2023-05-25T23:26:44.789Z,5.37
2023-05-25T23:29:14.414Z,5.00
2023-05-25T23:31:44.457Z,5.73
2023-05-25T23:34:13.795Z,5.33
2023-05-25T23:36:43.840Z,5.43
2023-05-25T23:39:13.937Z,5.97
2023-05-25T23:41:43.326Z,5.57
2023-05-25T23:44:13.212Z,5.70
2023-05-25T23:46:42.579Z,4.83
2023-05-25T23:49:14.943Z,4.80
2023-05-25T23:51:46.091Z,4.87
2023-05-25T23:54:17.048Z,5.63
2023-05-25T23:56:46.118Z,4.47
2023-05-25T23:59:15.420Z,5.63
